createdAt,value
2023-03-26T00:00:53.690Z,97707.92
2023-03-26T00:06:44.388Z,97704.17
2023-03-26T00:12:11.046Z,97707.91
2023-03-26T00:17:39.353Z,97711.55
2023-03-26T00:23:06.948Z,97700.10
2023-03-26T00:28:31.032Z,97693.98
2023-03-26T00:34:05.823Z,97692.73
2023-03-26T00:39:50.315Z,97685.75
2023-03-26T00:45:27.680Z,97682.30
2023-03-26T00:51:16.256Z,97677.09
2023-03-26T00:57:11.526Z,97666.73
2023-03-26T01:03:53.096Z,97665.24
2023-03-26T01:09:33.958Z,97663.83
2023-03-26T01:15:08.853Z,97673.46
2023-03-26T01:21:04.876Z,97663.55
2023-03-26T01:27:41.773Z,97662.71
2023-03-26T01:33:37.421Z,97651.66
2023-03-26T01:39:52.830Z,97652.70
2023-03-26T01:46:02.029Z,97650.02
2023-03-26T01:52:20.215Z,97652.91
2023-03-26T01:58:36.166Z,97657.55
2023-03-26T02:05:02.462Z,97654.73
2023-03-26T02:10:31.205Z,97653.79
2023-03-26T02:16:41.810Z,97654.55
2023-03-26T02:22:41.874Z,97648.63
2023-03-26T02:28:40.870Z,97643.44
2023-03-26T02:34:57.807Z,97639.14
2023-03-26T02:40:29.764Z,97633.29
2023-03-26T02:45:50.588Z,97628.25
2023-03-26T02:52:05.892Z,97630.48
2023-03-26T02:57:33.557Z,97633.09
2023-03-26T03:04:17.566Z,97633.21
2023-03-26T03:10:44.395Z,97630.30
2023-03-26T03:16:45.036Z,97630.09
2023-03-26T03:23:19.336Z,97624.11
2023-03-26T03:30:11.505Z,97623.70
2023-03-26T03:37:03.167Z,97626.23
2023-03-26T03:42:57.394Z,97632.83
2023-03-26T03:49:51.699Z,97634.84
2023-03-26T03:55:58.774Z,97632.38
2023-03-26T04:02:53.557Z,97638.90
2023-03-26T04:08:26.277Z,97640.05
2023-03-26T04:13:58.300Z,97635.24
2023-03-26T04:20:18.193Z,97627.67
2023-03-26T04:26:00.859Z,97630.65
2023-03-26T04:31:35.716Z,97627.41
2023-03-26T04:38:02.048Z,97633.46
2023-03-26T04:44:04.331Z,97635.27
2023-03-26T04:50:28.053Z,97627.16
2023-03-26T04:55:54.253Z,97620.80
2023-03-26T05:02:12.665Z,97621.09
2023-03-26T05:08:12.566Z,97618.23
2023-03-26T05:14:06.513Z,97622.80
2023-03-26T05:20:04.449Z,97630.03
2023-03-26T05:25:46.668Z,97637.02
2023-03-26T05:31:53.106Z,97637.80
2023-03-26T05:38:33.554Z,97633.02
2023-03-26T05:45:00.179Z,97637.41
2023-03-26T05:51:50.828Z,97636.31
2023-03-26T05:58:41.774Z,97636.67
2023-03-26T06:04:56.491Z,97640.62
2023-03-26T06:10:53.603Z,97647.02
2023-03-26T06:17:23.728Z,97642.99
2023-03-26T06:24:22.227Z,97636.23
2023-03-26T06:30:31.147Z,97640.35
2023-03-26T06:37:31.893Z,97642.21
2023-03-26T06:44:19.531Z,97648.55
2023-03-26T06:51:05.427Z,97652.13
2023-03-26T06:57:25.875Z,97645.64
2023-03-26T07:04:12.433Z,97654.68
2023-03-26T07:11:13.991Z,97658.29
2023-03-26T07:17:26.038Z,97662.15
2023-03-26T07:23:48.057Z,97665.81
2023-03-26T07:30:33.513Z,97663.10
2023-03-26T07:37:25.628Z,97667.27
2023-03-26T07:43:53.155Z,97665.14
2023-03-26T07:49:30.959Z,97667.83
2023-03-26T07:55:14.045Z,97667.83
2023-03-26T08:01:53.471Z,97668.16
2023-03-26T08:07:31.699Z,97662.23
2023-03-26T08:13:20.443Z,97664.02
2023-03-26T08:19:17.157Z,97663.44
2023-03-26T08:25:19.111Z,97654.37
2023-03-26T08:31:21.132Z,97648.61
2023-03-26T08:37:50.769Z,97644.80
2023-03-26T08:44:22.097Z,97637.52
2023-03-26T08:50:41.422Z,97632.20
2023-03-26T08:56:46.452Z,97625.13
2023-03-26T09:03:29.053Z,97620.47
2023-03-26T09:08:59.457Z,97621.52
2023-03-26T09:15:20.657Z,97615.53
2023-03-26T09:21:43.762Z,97626.37
2023-03-26T09:28:15.327Z,97627.40
2023-03-26T09:34:49.971Z,97641.25
2023-03-26T09:41:16.027Z,97642.23
2023-03-26T09:46:37.152Z,97636.96
2023-03-26T09:52:39.550Z,97633.02
2023-03-26T09:58:09.936Z,97630.91
2023-03-26T10:03:29.126Z,97628.70
2023-03-26T10:09:27.007Z,97617.44
2023-03-26T10:15:25.177Z,97606.65
2023-03-26T10:21:55.993Z,97601.33
2023-03-26T10:27:54.660Z,97610.02
2023-03-26T10:34:10.668Z,97610.84
2023-03-26T10:40:48.125Z,97607.77
2023-03-26T10:46:27.599Z,97589.08
2023-03-26T10:51:58.398Z,97580.62
2023-03-26T10:57:37.442Z,97575.44
2023-03-26T11:03:30.998Z,97560.90
2023-03-26T11:09:54.909Z,97553.39
2023-03-26T11:16:25.357Z,97553.46
2023-03-26T11:22:21.226Z,97548.02
2023-03-26T11:28:20.896Z,97542.52
2023-03-26T11:33:49.195Z,97543.63
2023-03-26T11:39:32.346Z,97539.95
2023-03-26T11:45:18.694Z,97526.80
2023-03-26T11:51:24.563Z,97516.69
2023-03-26T11:57:06.062Z,97505.85
2023-03-26T12:03:23.383Z,97494.27
2023-03-26T12:08:41.533Z,97494.24
2023-03-26T12:14:58.214Z,97492.88
2023-03-26T12:20:46.654Z,97488.70
2023-03-26T12:26:54.411Z,97480.95
2023-03-26T12:32:16.982Z,97474.64
2023-03-26T12:37:43.924Z,97467.84
2023-03-26T12:44:50.125Z,97454.45
2023-03-26T12:48:26.561Z,97438.38
2023-03-26T12:54:02.346Z,97430.95
2023-03-26T12:59:25.919Z,97429.90
2023-03-26T13:05:05.102Z,97431.80
2023-03-26T13:10:50.925Z,97430.36
2023-03-26T13:16:03.495Z,97413.99
2023-03-26T13:21:11.793Z,97407.57
2023-03-26T13:26:35.284Z,97405.10
2023-03-26T13:32:08.372Z,97400.52
2023-03-26T13:37:28.072Z,97397.36
2023-03-26T13:43:40.481Z,97389.75
2023-03-26T13:48:59.787Z,97382.13
2023-03-26T13:54:16.085Z,97378.90
2023-03-26T13:59:30.050Z,97372.38
2023-03-26T14:05:05.132Z,97372.06
2023-03-26T14:10:55.532Z,97368.13
2023-03-26T14:17:01.200Z,97359.52
2023-03-26T14:23:09.242Z,97350.77
2023-03-26T14:28:24.530Z,97352.45
2023-03-26T14:33:38.722Z,97346.83
2023-03-26T14:39:21.228Z,97344.65
2023-03-26T14:45:09.161Z,97347.13
2023-03-26T14:50:36.483Z,97345.61
2023-03-26T14:56:15.658Z,97337.43
2023-03-26T15:01:25.538Z,97336.54
2023-03-26T15:07:12.495Z,97335.17
2023-03-26T15:12:42.839Z,97336.42
2023-03-26T15:18:23.027Z,97326.50
2023-03-26T15:23:34.054Z,97320.24
2023-03-26T15:29:24.845Z,97312.29
2023-03-26T15:34:50.675Z,97311.39
2023-03-26T15:40:14.785Z,97306.91
2023-03-26T15:45:57.544Z,97306.42
2023-03-26T15:52:00.294Z,97304.75
2023-03-26T15:57:26.445Z,97296.99
2023-03-26T16:02:38.502Z,97291.29
2023-03-26T16:08:21.033Z,97288.31
2023-03-26T16:14:08.913Z,97288.08
2023-03-26T16:19:22.730Z,97287.75
2023-03-26T16:25:26.579Z,97288.77
2023-03-26T16:31:39.570Z,97286.84
2023-03-26T16:36:49.386Z,97288.20
2023-03-26T16:42:06.226Z,97283.50
2023-03-26T16:48:11.114Z,97285.79
2023-03-26T16:54:54.796Z,97280.95
2023-03-26T17:01:28.749Z,97287.24
2023-03-26T17:06:53.552Z,97290.15
2023-03-26T17:12:55.089Z,97288.96
2023-03-26T17:19:19.123Z,97285.63
2023-03-26T17:24:43.832Z,97286.41
2023-03-26T17:30:27.093Z,97293.88
2023-03-26T17:35:49.461Z,97297.86
2023-03-26T17:41:01.407Z,97300.09
2023-03-26T17:46:44.764Z,97301.92
2023-03-26T17:52:16.635Z,97297.23
2023-03-26T17:58:25.461Z,97290.77
2023-03-26T18:04:07.749Z,97294.59
2023-03-26T18:09:38.556Z,97298.80
2023-03-26T18:15:25.198Z,97297.02
2023-03-26T18:20:31.519Z,97299.94
2023-03-26T18:25:34.700Z,97302.41
2023-03-26T18:30:47.827Z,97304.97
2023-03-26T18:35:58.342Z,97306.90
2023-03-26T18:41:05.607Z,97311.38
2023-03-26T18:46:12.520Z,97311.17
2023-03-26T18:51:23.360Z,97309.35
2023-03-26T18:56:36.221Z,97303.67
2023-03-26T19:01:38.507Z,97299.94
2023-03-26T19:06:48.831Z,97300.02
2023-03-26T19:11:58.062Z,97291.34
2023-03-26T19:18:05.383Z,97286.73
2023-03-26T19:24:32.346Z,97285.16
2023-03-26T19:29:54.700Z,97271.11
2023-03-26T19:35:02.495Z,97273.75
2023-03-26T19:40:34.447Z,97272.08
2023-03-26T19:46:54.014Z,97269.25
2023-03-26T19:52:32.327Z,97266.04
2023-03-26T19:57:48.187Z,97262.30
2023-03-26T20:03:04.103Z,97261.11
2023-03-26T20:08:40.522Z,97252.24
2023-03-26T20:13:44.439Z,97243.00
2023-03-26T20:19:48.250Z,97245.43
2023-03-26T20:25:20.299Z,97243.32
2023-03-26T20:30:37.327Z,97235.48
2023-03-26T20:35:53.485Z,97222.88
2023-03-26T20:41:16.831Z,97209.16
2023-03-26T20:46:40.132Z,97191.87
2023-03-26T20:52:07.378Z,97182.94
2023-03-26T20:57:29.058Z,97169.87
2023-03-26T21:02:42.005Z,97167.81
2023-03-26T21:08:04.025Z,97157.88
2023-03-26T21:13:28.342Z,97156.47
2023-03-26T21:18:35.074Z,97159.08
2023-03-26T21:24:04.586Z,97163.66
2023-03-26T21:29:16.833Z,97170.75
2023-03-26T21:34:19.861Z,97178.41
2023-03-26T21:39:25.274Z,97176.84
2023-03-26T21:44:28.689Z,97172.08
2023-03-26T21:49:46.497Z,97160.16
2023-03-26T21:55:04.082Z,97157.31
2023-03-26T22:00:28.231Z,97156.25
2023-03-26T22:06:10.946Z,97145.50
2023-03-26T22:12:23.655Z,97148.34
2023-03-26T22:18:37.407Z,97153.27
2023-03-26T22:24:08.355Z,97155.19
2023-03-26T22:30:22.839Z,97149.75
2023-03-26T22:35:45.647Z,97135.00
2023-03-26T22:40:59.062Z,97128.11
2023-03-26T22:46:32.499Z,97129.28
2023-03-26T22:52:13.008Z,97131.95
2023-03-26T22:57:43.937Z,97120.36
2023-03-26T23:02:52.796Z,97111.25
2023-03-26T23:08:26.732Z,97106.05
2023-03-26T23:14:11.018Z,97101.88
2023-03-26T23:19:33.121Z,97099.23
2023-03-26T23:25:25.281Z,97092.70
2023-03-26T23:30:57.233Z,97094.44
2023-03-26T23:36:33.883Z,97091.48
2023-03-26T23:42:04.710Z,97085.05
2023-03-26T23:47:52.646Z,97084.66
2023-03-26T23:53:28.495Z,97084.23
2023-03-26T23:59:41.412Z,97089.01
